Clifton, Idaho
Current Conditions -  °F | °C
As of 10:51 PM on Thursday 25 Dec 2014 (Local Time) from KLGU Reporting Station
Overcast Overcast  
Wind Chill: -4°   Ceiling: 7000
Heat Index: -4°   Visibility: 10mi
Dew Point: -7°   Wind: 0mph
Humidity: 84%   Direction: NA
Pressure: 29.86"   Gusts: NA
Location:  42.19°N, 112.01°W
Report Text: KLGU 260551Z AUTO 00000KT 10SM OVC070 M04/M07 A2986 RMK AO2 SLP138 60000 T10441067 11028 21056 53017
Loading
Personal Weather Stations






























Interactive Weather Map New forecast layout! Learn more

10-Day Weather Forecast

Advertisements
Track Severe Weather on mobile